Time;durP1;ratioP1;P1;durP2;ratioP2;P2;SDS_P1;SDS_P2;PMS_P1;PMS_P2;Temp;Humidity;BMP_temperature;BMP_pressure;BME280_temperature;BME280_humidity;BME280_pressure;Samples;Min_cycle;Max_cycle;Signal;HPM_P1;HPM_P2
2022/10/15 00:01:40;;;;;;;25.10;14.55;;;14.00;99.90;;;;;;5083047;28;20024;-40
2022/10/15 00:04:06;;;;;;;27.85;14.75;;;14.00;99.90;;;;;;5091576;28;20055;-31
2022/10/15 00:06:32;;;;;;;28.15;14.88;;;14.10;99.90;;;;;;5089157;28;20051;-32
2022/10/15 00:08:58;;;;;;;29.55;14.77;;;14.10;99.90;;;;;;5074452;28;20024;-35
2022/10/15 00:11:25;;;;;;;28.33;15.95;;;14.10;99.90;;;;;;5074452;28;20086;-38
2022/10/15 00:13:53;;;;;;;37.58;16.00;;;14.10;99.90;;;;;;5093651;28;20027;-38
2022/10/15 00:16:23;;;;;;;33.65;15.73;;;14.10;99.90;;;;;;5074476;28;20480;-36
2022/10/15 00:18:50;;;;;;;28.58;15.35;;;14.10;99.90;;;;;;5088158;28;20044;-31
2022/10/15 00:21:18;;;;;;;30.02;15.80;;;14.10;99.90;;;;;;5073349;28;20028;-35
2022/10/15 00:23:45;;;;;;;29.58;15.43;;;14.10;99.90;;;;;;5073127;28;20036;-34
2022/10/15 00:26:14;;;;;;;27.27;14.63;;;14.10;99.90;;;;;;5073166;28;20029;-32
2022/10/15 00:28:40;;;;;;;32.03;16.60;;;14.20;99.90;;;;;;5074790;28;20480;-36
2022/10/15 00:31:09;;;;;;;28.63;15.15;;;14.20;99.90;;;;;;5081852;28;20032;-33
2022/10/15 00:33:35;;;;;;;29.58;16.77;;;14.20;99.90;;;;;;5083266;28;20035;-34
2022/10/15 00:36:05;;;;;;;32.17;17.10;;;14.20;99.90;;;;;;5076326;28;20032;-34
2022/10/15 00:38:31;;;;;;;31.88;17.70;;;14.20;99.90;;;;;;5082767;28;20565;-33
2022/10/15 00:40:57;;;;;;;30.33;16.17;;;14.30;99.90;;;;;;5087993;28;20129;-31
2022/10/15 00:43:41;;;;;;;31.58;15.68;;;14.30;99.90;;;;;;5093031;28;20023;-32
2022/10/15 00:46:18;;;;;;;30.67;15.93;;;14.30;99.90;;;;;;5084388;28;20035;-39
2022/10/15 00:48:46;;;;;;;32.30;17.02;;;14.30;99.90;;;;;;5084961;28;20017;-39
2022/10/15 00:51:13;;;;;;;31.63;15.13;;;14.30;99.90;;;;;;5055612;28;20047;-39
2022/10/15 00:53:39;;;;;;;30.77;17.20;;;14.20;99.90;;;;;;5071978;28;20082;-39
2022/10/15 00:56:05;;;;;;;33.83;17.85;;;14.20;99.90;;;;;;5085489;28;20489;-43
2022/10/15 00:58:31;;;;;;;33.22;16.92;;;14.20;99.90;;;;;;5087510;28;20439;-34
2022/10/15 01:00:57;;;;;;;33.95;17.55;;;14.20;99.90;;;;;;5087786;28;20484;-35
2022/10/15 01:03:24;;;;;;;38.92;18.70;;;14.10;99.90;;;;;;5060896;28;20028;-40
2022/10/15 01:05:51;;;;;;;40.17;18.80;;;14.10;99.90;;;;;;5077630;28;20016;-43
2022/10/15 01:08:17;;;;;;;37.47;20.23;;;14.10;99.90;;;;;;5092246;28;20021;-39
2022/10/15 01:10:52;;;;;;;40.05;19.38;;;14.10;99.90;;;;;;5091869;28;20054;-40
2022/10/15 01:13:46;;;;;;;37.42;16.63;;;14.10;99.90;;;;;;5075009;28;20500;-39
2022/10/15 01:16:17;;;;;;;35.13;18.33;;;14.10;99.90;;;;;;5078740;28;20020;-43
2022/10/15 01:19:02;;;;;;;34.85;18.75;;;14.10;99.90;;;;;;5080763;28;20032;-39
2022/10/15 01:21:43;;;;;;;42.88;19.95;;;14.10;99.90;;;;;;5088987;28;20040;-40
2022/10/15 01:24:33;;;;;;;37.83;17.98;;;14.10;99.90;;;;;;5086816;28;20557;-40
2022/10/15 01:27:26;;;;;;;36.83;17.95;;;14.10;99.90;;;;;;5090185;28;20512;-39
2022/10/15 01:30:14;;;;;;;40.28;19.35;;;14.10;99.90;;;;;;5077302;28;20408;-39
2022/10/15 01:32:48;;;;;;;37.05;18.27;;;14.10;99.90;;;;;;5066535;28;20047;-30
2022/10/15 01:35:22;;;;;;;44.13;20.33;;;14.10;99.90;;;;;;5081048;28;20032;-35
2022/10/15 01:38:21;;;;;;;39.13;18.02;;;14.00;99.90;;;;;;5062837;28;20073;-35
2022/10/15 01:40:54;;;;;;;41.15;19.00;;;14.00;99.90;;;;;;5080626;28;20488;-32
2022/10/15 01:43:51;;;;;;;38.75;18.63;;;14.00;99.90;;;;;;5072305;28;20108;-33
2022/10/15 01:46:41;;;;;;;37.05;18.80;;;14.00;99.90;;;;;;5073053;28;20403;-34
2022/10/15 01:49:09;;;;;;;35.05;17.58;;;14.00;99.90;;;;;;5073505;28;20028;-33
2022/10/15 01:51:37;;;;;;;35.35;18.30;;;14.00;99.90;;;;;;5073455;28;20024;-32
2022/10/15 01:54:06;;;;;;;45.42;19.95;;;14.10;99.90;;;;;;5073761;28;20499;-33
2022/10/15 01:56:35;;;;;;;40.22;19.77;;;14.10;99.90;;;;;;5072268;28;20064;-35
2022/10/15 01:59:02;;;;;;;36.95;18.45;;;14.10;99.90;;;;;;5072522;28;20082;-33
2022/10/15 02:01:28;;;;;;;35.27;18.77;;;14.10;99.90;;;;;;5075410;28;20078;-32
2022/10/15 02:03:53;;;;;;;36.38;18.15;;;14.10;99.90;;;;;;5084707;28;20029;-31
2022/10/15 02:06:25;;;;;;;42.55;18.05;;;14.10;99.90;;;;;;5077062;28;20509;-31
2022/10/15 02:09:02;;;;;;;40.00;18.13;;;14.20;99.90;;;;;;5092948;28;20514;-34
2022/10/15 02:11:30;;;;;;;39.05;18.48;;;14.20;99.90;;;;;;5093970;28;20506;-32
2022/10/15 02:14:01;;;;;;;39.92;18.27;;;14.20;99.90;;;;;;5092709;28;20028;-31
2022/10/15 02:16:38;;;;;;;42.22;18.50;;;14.20;99.90;;;;;;5084430;28;20484;-33
2022/10/15 02:19:42;;;;;;;36.65;17.00;;;14.20;99.90;;;;;;5094407;28;20036;-33
2022/10/15 02:22:17;;;;;;;34.13;18.33;;;14.30;99.90;;;;;;5081534;28;20044;-31
2022/10/15 02:24:50;;;;;;;42.10;18.92;;;14.30;99.90;;;;;;5093135;28;20023;-33
2022/10/15 02:27:17;;;;;;;38.25;18.88;;;14.30;99.90;;;;;;5077607;28;20055;-33
2022/10/15 02:29:45;;;;;;;28.90;16.98;;;14.30;99.90;;;;;;5090868;28;20495;-35
2022/10/15 02:32:13;;;;;;;35.13;18.00;;;14.30;99.90;;;;;;5076313;28;20021;-31
2022/10/15 02:34:39;;;;;;;;;;;14.20;99.90;;;;;;5083739;28;20024;-36
2022/10/15 02:37:07;;;;;;;33.47;17.65;;;14.20;99.90;;;;;;5074626;28;20435;-35
2022/10/15 02:39:33;;;;;;;38.10;18.50;;;14.10;99.90;;;;;;5095374;28;20032;-35
2022/10/15 02:41:59;;;;;;;32.28;16.85;;;14.10;99.90;;;;;;5087694;28;20055;-33
2022/10/15 02:44:26;;;;;;;32.88;16.75;;;14.20;99.90;;;;;;5090646;28;20028;-32
2022/10/15 02:46:51;;;;;;;39.78;16.10;;;14.20;99.90;;;;;;5091518;28;20035;-34
2022/10/15 02:49:17;;;;;;;37.72;18.33;;;14.20;99.90;;;;;;5085936;28;20029;-38
2022/10/15 02:51:43;;;;;;;32.28;16.23;;;14.10;99.90;;;;;;5075307;28;20481;-34
2022/10/15 02:54:08;;;;;;;36.08;17.17;;;14.10;99.90;;;;;;5075160;28;20032;-36
2022/10/15 02:56:34;;;;;;;31.73;17.05;;;14.10;99.90;;;;;;5091752;28;20032;-43
2022/10/15 02:59:00;;;;;;;30.65;17.00;;;14.00;99.90;;;;;;5093156;28;20078;-34
2022/10/15 03:01:26;;;;;;;32.03;17.75;;;14.00;99.90;;;;;;5078216;28;20032;-35
2022/10/15 03:03:51;;;;;;;29.92;16.13;;;14.00;99.90;;;;;;5094088;28;20460;-37
2022/10/15 03:06:17;;;;;;;30.80;15.50;;;14.00;99.90;;;;;;5087181;28;20029;-34
2022/10/15 03:08:43;;;;;;;30.77;16.35;;;14.00;99.90;;;;;;5079088;28;20031;-33
2022/10/15 03:11:09;;;;;;;31.98;16.70;;;13.90;99.90;;;;;;5094681;28;20042;-33
2022/10/15 03:13:36;;;;;;;26.80;15.90;;;13.90;99.90;;;;;;5092058;28;20054;-34
2022/10/15 03:16:09;;;;;;;24.03;12.53;;;14.00;99.90;;;;;;5082180;28;20484;-35
2022/10/15 03:18:35;;;;;;;31.60;15.45;;;13.90;99.90;;;;;;5088282;28;20032;-33
2022/10/15 03:21:01;;;;;;;30.20;15.98;;;13.90;99.90;;;;;;5077144;28;20029;-34
2022/10/15 03:23:27;;;;;;;30.50;16.70;;;13.90;99.90;;;;;;5088812;28;20031;-37
2022/10/15 03:25:53;;;;;;;27.88;15.85;;;13.90;99.90;;;;;;5083582;28;20027;-40
2022/10/15 03:28:19;;;;;;;30.48;15.52;;;13.90;99.90;;;;;;5081457;28;20035;-34
2022/10/15 03:30:45;;;;;;;37.58;16.33;;;13.80;99.90;;;;;;5093522;28;20055;-31
2022/10/15 03:33:11;;;;;;;27.75;15.57;;;13.80;99.90;;;;;;5088737;28;20116;-31
2022/10/15 03:35:37;;;;;;;31.50;17.40;;;13.80;99.90;;;;;;5062976;28;20504;-32
2022/10/15 03:38:03;;;;;;;31.27;15.80;;;13.80;99.90;;;;;;5087793;28;20071;-33
2022/10/15 03:40:29;;;;;;;28.63;16.73;;;13.80;99.90;;;;;;5094160;28;20028;-58
2022/10/15 03:42:55;;;;;;;35.13;18.55;;;13.80;99.90;;;;;;5093491;28;20441;-34
2022/10/15 03:45:21;;;;;;;31.52;17.65;;;13.70;99.90;;;;;;5067826;28;20082;-40
2022/10/15 03:47:47;;;;;;;30.17;16.58;;;13.70;99.90;;;;;;5090504;28;20028;-40
2022/10/15 03:50:13;;;;;;;29.50;16.05;;;13.60;99.90;;;;;;5075931;28;20472;-41
2022/10/15 03:52:38;;;;;;;34.67;17.60;;;13.70;99.90;;;;;;5077086;28;20060;-41
2022/10/15 03:55:05;;;;;;;29.67;16.42;;;13.70;99.90;;;;;;5084252;28;20032;-34
2022/10/15 03:57:31;;;;;;;37.15;16.88;;;13.70;99.90;;;;;;5093092;28;20036;-38
2022/10/15 03:59:57;;;;;;;33.95;17.73;;;13.70;99.90;;;;;;5093832;28;20039;-33
2022/10/15 04:02:23;;;;;;;33.63;17.70;;;13.60;99.90;;;;;;5090486;28;20032;-33
2022/10/15 04:04:52;;;;;;;30.65;16.27;;;13.60;99.90;;;;;;5078562;28;20020;-35
2022/10/15 04:07:18;;;;;;;30.45;16.90;;;13.60;99.90;;;;;;5073344;28;20029;-32
2022/10/15 04:09:43;;;;;;;33.03;17.13;;;13.60;99.90;;;;;;5073426;28;20515;-39
2022/10/15 04:12:09;;;;;;;32.28;17.15;;;13.60;99.90;;;;;;5078437;28;20028;-37
2022/10/15 04:14:35;;;;;;;29.10;16.85;;;13.60;99.90;;;;;;5064302;28;20538;-35
2022/10/15 04:17:01;;;;;;;32.22;17.65;;;13.60;99.90;;;;;;5069887;28;20536;-37
2022/10/15 04:19:27;;;;;;;31.98;17.45;;;13.50;99.90;;;;;;5080240;28;20037;-33
2022/10/15 04:21:52;;;;;;;34.92;17.23;;;13.60;99.90;;;;;;5078704;28;20074;-33
2022/10/15 04:24:18;;;;;;;28.35;15.93;;;13.60;99.90;;;;;;5088554;28;20047;-39
2022/10/15 04:26:44;;;;;;;34.25;17.45;;;13.50;99.90;;;;;;5075668;28;20031;-32
2022/10/15 04:29:09;;;;;;;37.60;16.85;;;13.50;99.90;;;;;;5086306;28;20035;-32
2022/10/15 04:31:36;;;;;;;31.70;17.75;;;13.50;99.90;;;;;;5088237;28;20036;-38
2022/10/15 04:34:02;;;;;;;34.22;18.23;;;13.50;99.90;;;;;;5083890;28;20028;-31
2022/10/15 04:36:28;;;;;;;36.53;18.38;;;13.50;99.90;;;;;;5087220;28;20557;-35
2022/10/15 04:38:53;;;;;;;35.95;15.95;;;13.50;99.90;;;;;;5091964;28;20071;-31
2022/10/15 04:41:19;;;;;;;32.83;17.45;;;13.60;99.90;;;;;;5081661;28;20392;-34
2022/10/15 04:43:45;;;;;;;28.85;16.40;;;13.60;99.90;;;;;;5093093;28;20024;-32
2022/10/15 04:46:10;;;;;;;29.83;17.25;;;13.60;99.90;;;;;;5089484;28;20030;-36
2022/10/15 04:48:56;;;;;;;31.60;17.48;;;13.60;99.90;;;;;;5091408;28;20361;-32
2022/10/15 04:51:23;;;;;;;31.10;17.67;;;13.70;99.90;;;;;;5093060;28;20027;-31
2022/10/15 04:53:49;;;;;;;33.53;18.25;;;13.70;99.90;;;;;;5091360;28;20026;-32
2022/10/15 04:56:17;;;;;;;33.53;18.55;;;13.70;99.90;;;;;;5092036;28;20077;-34
2022/10/15 04:58:44;;;;;;;32.80;17.65;;;13.80;99.90;;;;;;5076982;28;20469;-32
2022/10/15 05:01:13;;;;;;;34.00;17.45;;;13.70;99.90;;;;;;5092846;28;20030;-37
2022/10/15 05:03:43;;;;;;;35.42;17.17;;;13.70;99.90;;;;;;5091949;28;20546;-34
2022/10/15 05:06:12;;;;;;;30.13;17.17;;;13.80;99.90;;;;;;5092010;28;20106;-30
2022/10/15 05:08:42;;;;;;;31.45;16.65;;;13.70;99.90;;;;;;5093116;28;20385;-34
2022/10/15 05:11:20;;;;;;;31.77;17.52;;;13.80;99.90;;;;;;5092642;28;20480;-31
2022/10/15 05:13:45;;;;;;;;;;;13.70;99.90;;;;;;5083266;28;20526;-36
2022/10/15 05:16:11;;;;;;;35.65;17.85;;;13.70;99.90;;;;;;5086044;28;19908;-32
2022/10/15 05:18:37;;;;;;;34.63;17.75;;;13.80;99.90;;;;;;5088033;28;20039;-38
2022/10/15 05:21:04;;;;;;;38.97;19.23;;;13.80;99.90;;;;;;5082673;28;20366;-36
2022/10/15 05:23:29;;;;;;;38.97;19.05;;;13.80;99.90;;;;;;5083086;28;20506;-35
2022/10/15 05:25:59;;;;;;;42.17;20.13;;;13.80;99.90;;;;;;5085270;28;20107;-34
2022/10/15 05:28:24;;;;;;;47.88;21.58;;;13.80;99.90;;;;;;5082107;28;20063;-31
2022/10/15 05:30:50;;;;;;;48.60;21.88;;;13.80;99.90;;;;;;5073707;28;20033;-39
2022/10/15 05:33:15;;;;;;;61.08;22.60;;;13.80;99.90;;;;;;5076021;28;20020;-40
2022/10/15 05:35:41;;;;;;;54.50;22.92;;;13.80;99.90;;;;;;5077241;28;20446;-39
2022/10/15 05:38:07;;;;;;;53.10;23.42;;;13.80;99.90;;;;;;5082930;28;20072;-42
2022/10/15 05:40:33;;;;;;;59.50;23.48;;;13.80;99.90;;;;;;5077977;28;20020;-40
2022/10/15 05:42:58;;;;;;;51.72;22.00;;;13.80;99.90;;;;;;5072055;28;20622;-40
2022/10/15 05:45:24;;;;;;;46.25;21.00;;;13.80;99.90;;;;;;5095180;28;20108;-41
2022/10/15 05:47:56;;;;;;;57.85;23.98;;;13.80;99.90;;;;;;5086896;28;20025;-40
2022/10/15 05:50:22;;;;;;;49.80;21.58;;;13.80;99.90;;;;;;5089568;28;20465;-39
2022/10/15 05:52:48;;;;;;;41.28;20.80;;;13.80;99.90;;;;;;5077353;28;20492;-40
2022/10/15 05:55:14;;;;;;;55.90;22.40;;;13.90;99.90;;;;;;5080576;28;20051;-38
2022/10/15 05:57:40;;;;;;;51.85;20.85;;;13.80;99.90;;;;;;5080719;28;20055;-41
2022/10/15 06:00:07;;;;;;;47.33;21.05;;;13.90;99.90;;;;;;5077165;28;20023;-41
2022/10/15 06:02:33;;;;;;;56.33;23.38;;;13.80;99.90;;;;;;5082864;28;20392;-40
2022/10/15 06:04:59;;;;;;;55.70;23.83;;;13.80;99.90;;;;;;5091919;28;20050;-47
2022/10/15 06:07:25;;;;;;;48.58;21.55;;;13.90;99.90;;;;;;5095644;28;20020;-42
2022/10/15 06:09:51;;;;;;;62.15;24.27;;;13.90;99.90;;;;;;5090045;28;20472;-37
2022/10/15 06:12:16;;;;;;;67.40;26.90;;;13.90;99.90;;;;;;5076036;28;20103;-32
2022/10/15 06:14:42;;;;;;;71.70;26.67;;;13.90;99.90;;;;;;5095980;28;20484;-41
2022/10/15 06:17:07;;;;;;;68.95;24.38;;;13.90;99.90;;;;;;5095844;28;20555;-61
2022/10/15 06:19:33;;;;;;;67.63;24.23;;;13.90;99.90;;;;;;5083789;28;20036;-42
2022/10/15 06:21:59;;;;;;;67.07;24.77;;;13.90;99.90;;;;;;5083355;28;20021;-44
2022/10/15 06:24:24;;;;;;;71.10;24.38;;;13.90;99.90;;;;;;5087797;28;20472;-42
2022/10/15 06:26:50;;;;;;;58.10;23.02;;;13.90;99.90;;;;;;5089347;28;20024;-41
2022/10/15 06:29:15;;;;;;;55.25;22.50;;;13.90;99.90;;;;;;5082349;28;20096;-39
2022/10/15 06:31:41;;;;;;;68.00;25.10;;;13.90;99.90;;;;;;5087128;28;20387;-41
2022/10/15 06:34:07;;;;;;;61.67;23.63;;;13.90;99.90;;;;;;5080062;28;20024;-42
2022/10/15 06:36:32;;;;;;;58.47;22.00;;;14.00;99.90;;;;;;5079785;28;20400;-40
2022/10/15 06:38:58;;;;;;;58.67;23.60;;;14.00;99.90;;;;;;5076501;28;20053;-42
2022/10/15 06:41:23;;;;;;;58.30;22.30;;;13.90;99.90;;;;;;5082436;28;20536;-40
2022/10/15 06:43:49;;;;;;;60.53;23.02;;;14.00;99.90;;;;;;5083789;28;20020;-45
2022/10/15 06:46:15;;;;;;;60.40;22.70;;;14.10;99.90;;;;;;5082777;28;20023;-48
2022/10/15 06:48:40;;;;;;;60.30;22.48;;;14.10;99.90;;;;;;5088574;28;20016;-39
2022/10/15 06:51:06;;;;;;;68.63;23.90;;;14.10;99.90;;;;;;5073508;28;20165;-42
2022/10/15 06:53:32;;;;;;;61.42;23.42;;;14.10;99.90;;;;;;5058183;28;20041;-42
2022/10/15 06:55:59;;;;;;;59.95;23.25;;;14.10;99.90;;;;;;5081154;28;20476;-41
2022/10/15 06:58:25;;;;;;;63.47;24.15;;;14.10;99.90;;;;;;5094629;28;20492;-41
2022/10/15 07:00:51;;;;;;;62.08;23.60;;;14.10;99.90;;;;;;5089434;28;20036;-41
2022/10/15 07:03:17;;;;;;;53.42;22.42;;;14.10;99.90;;;;;;5086812;28;20435;-44
2022/10/15 07:05:42;;;;;;;54.50;20.50;;;14.10;99.90;;;;;;5086610;28;20472;-64
2022/10/15 07:10:53;;;;;;;48.95;20.13;;;14.20;99.90;;;;;;5094516;28;20043;-40
2022/10/15 07:13:18;;;;;;;51.47;20.42;;;14.10;99.90;;;;;;5075471;28;20044;-45
2022/10/15 07:15:45;;;;;;;53.22;21.48;;;14.10;99.90;;;;;;5091146;28;20031;-40
2022/10/15 07:18:10;;;;;;;49.03;20.13;;;14.10;99.90;;;;;;5087040;28;20025;-42
2022/10/15 07:20:36;;;;;;;51.83;20.83;;;14.10;99.90;;;;;;5083964;28;20387;-40
2022/10/15 07:23:02;;;;;;;53.03;20.80;;;14.20;99.90;;;;;;5081071;28;20035;-41
2022/10/15 07:25:28;;;;;;;53.15;20.73;;;14.30;99.90;;;;;;5074221;28;20028;-41
2022/10/15 07:27:55;;;;;;;50.70;21.95;;;14.30;99.90;;;;;;5087845;28;20549;-40
2022/10/15 07:30:22;;;;;;;52.22;20.00;;;14.30;99.90;;;;;;5079811;28;20691;-35
2022/10/15 07:32:47;;;;;;;42.20;18.48;;;14.40;99.90;;;;;;5086513;28;20101;-49
2022/10/15 07:35:13;;;;;;;45.55;18.70;;;14.40;99.90;;;;;;5077733;28;20060;-39
2022/10/15 07:37:39;;;;;;;41.75;17.63;;;14.40;99.90;;;;;;5087722;28;20076;-40
2022/10/15 07:40:05;;;;;;;40.85;18.38;;;14.40;99.90;;;;;;5066870;28;20039;-40
2022/10/15 07:42:31;;;;;;;42.38;16.95;;;14.40;99.90;;;;;;5083776;28;20024;-38
2022/10/15 07:44:58;;;;;;;38.17;17.00;;;14.50;99.90;;;;;;5074564;28;20081;-41
2022/10/15 07:47:23;;;;;;;33.80;15.05;;;14.50;99.90;;;;;;5087527;28;20070;-42
2022/10/15 07:49:49;;;;;;;38.63;15.23;;;14.50;99.90;;;;;;5060985;28;20060;-41
2022/10/15 07:52:14;;;;;;;34.42;15.07;;;14.50;99.90;;;;;;5084566;28;20032;-42
2022/10/15 07:54:40;;;;;;;29.75;13.13;;;14.60;99.90;;;;;;5092946;28;20031;-42
2022/10/15 07:57:06;;;;;;;27.02;12.82;;;14.60;99.90;;;;;;5079014;28;20029;-40
2022/10/15 07:59:33;;;;;;;24.65;12.32;;;14.60;99.90;;;;;;5082317;28;20094;-41
2022/10/15 08:01:58;;;;;;;27.73;12.90;;;14.70;99.90;;;;;;5073762;28;20450;-41
2022/10/15 08:04:24;;;;;;;29.35;13.65;;;14.80;99.90;;;;;;5088181;28;20111;-39
2022/10/15 08:06:49;;;;;;;31.02;15.13;;;14.80;99.90;;;;;;5089270;28;20030;-46
2022/10/15 08:09:15;;;;;;;28.58;11.98;;;14.80;99.90;;;;;;5075544;28;20039;-41
2022/10/15 08:11:41;;;;;;;23.08;12.43;;;14.90;99.90;;;;;;5090154;28;20036;-40
2022/10/15 08:14:07;;;;;;;19.17;11.88;;;14.90;99.90;;;;;;5087801;28;20395;-45
2022/10/15 08:16:32;;;;;;;22.70;11.65;;;14.80;99.90;;;;;;5078606;28;20432;-40
2022/10/15 08:18:59;;;;;;;25.58;12.65;;;14.80;99.90;;;;;;5093762;28;20036;-41
2022/10/15 08:21:25;;;;;;;25.10;12.05;;;14.80;99.90;;;;;;5088612;28;20070;-53
2022/10/15 08:23:51;;;;;;;24.95;12.35;;;14.80;99.90;;;;;;5089380;28;20085;-44
2022/10/15 08:26:17;;;;;;;23.58;11.90;;;14.80;99.90;;;;;;5090244;28;20464;-39
2022/10/15 08:28:43;;;;;;;22.88;12.02;;;14.90;99.90;;;;;;5091377;28;20031;-43
2022/10/15 08:31:09;;;;;;;24.73;12.18;;;14.90;99.90;;;;;;5076228;28;20416;-43
2022/10/15 08:33:36;;;;;;;25.25;12.77;;;15.00;99.90;;;;;;5085861;28;20035;-41
2022/10/15 08:36:04;;;;;;;20.08;10.85;;;15.10;99.90;;;;;;5092333;28;20070;-40
2022/10/15 08:38:30;;;;;;;24.05;12.15;;;15.30;99.90;;;;;;5078969;28;20074;-41
2022/10/15 08:40:58;;;;;;;17.52;10.50;;;15.40;99.90;;;;;;5089518;28;20498;-40
2022/10/15 08:43:27;;;;;;;21.05;10.38;;;15.50;99.90;;;;;;5092354;28;20035;-41
2022/10/15 08:45:58;;;;;;;22.02;11.48;;;15.70;99.90;;;;;;5091884;28;20137;-46
2022/10/15 08:48:33;;;;;;;19.58;10.05;;;15.80;99.90;;;;;;5081109;28;20040;-42
2022/10/15 08:51:05;;;;;;;20.33;10.05;;;15.80;99.90;;;;;;5091866;28;20036;-42
2022/10/15 08:53:37;;;;;;;17.05;9.13;;;15.80;99.90;;;;;;5093414;28;20096;-40
2022/10/15 08:56:11;;;;;;;21.88;9.95;;;15.80;99.90;;;;;;5093080;28;20039;-41
2022/10/15 08:58:55;;;;;;;20.92;10.95;;;15.90;99.90;;;;;;5080894;28;20056;-44
2022/10/15 09:01:31;;;;;;;17.67;10.02;;;16.10;99.90;;;;;;5075392;28;20556;-41
2022/10/15 09:04:26;;;;;;;18.50;10.65;;;16.10;99.90;;;;;;5076437;28;20058;-42
2022/10/15 09:07:02;;;;;;;17.33;10.25;;;16.10;99.90;;;;;;5091447;28;20123;-41
2022/10/15 09:09:43;;;;;;;15.13;8.75;;;16.10;99.90;;;;;;5092246;28;20028;-41
2022/10/15 09:12:35;;;;;;;15.68;9.10;;;16.10;99.90;;;;;;5093165;28;20521;-44
2022/10/15 09:15:04;;;;;;;14.30;8.15;;;16.10;99.90;;;;;;5092448;28;20031;-40
2022/10/15 09:17:31;;;;;;;13.07;8.13;;;16.10;99.90;;;;;;5090520;28;20506;-41
2022/10/15 09:20:01;;;;;;;11.98;7.63;;;16.10;99.90;;;;;;5096321;28;20024;-43
2022/10/15 09:22:30;;;;;;;14.23;7.43;;;16.20;99.90;;;;;;5096861;28;20023;-40
2022/10/15 09:24:56;;;;;;;14.07;7.43;;;16.10;99.90;;;;;;5096853;28;20028;-44
2022/10/15 09:27:35;;;;;;;11.10;6.95;;;16.20;99.90;;;;;;5096939;28;20365;-41
2022/10/15 09:30:03;;;;;;;11.70;6.70;;;16.20;99.90;;;;;;5095969;28;20032;-42
2022/10/15 09:32:55;;;;;;;12.15;7.10;;;16.10;99.90;;;;;;5095834;28;20039;-40
2022/10/15 09:35:35;;;;;;;9.23;6.32;;;16.10;99.90;;;;;;5074784;28;20136;-40
2022/10/15 09:38:19;;;;;;;9.55;6.53;;;16.00;99.90;;;;;;5085959;28;20123;-40
2022/10/15 09:41:01;;;;;;;11.32;6.22;;;16.00;99.90;;;;;;5081838;28;20426;-40
2022/10/15 09:43:35;;;;;;;11.63;6.85;;;16.00;99.90;;;;;;5090318;28;20028;-43
2022/10/15 09:46:03;;;;;;;12.55;7.38;;;16.00;99.90;;;;;;5076549;28;20519;-42
2022/10/15 09:48:53;;;;;;;15.13;7.57;;;15.90;99.90;;;;;;5079081;28;20036;-50
2022/10/15 09:51:39;;;;;;;13.10;7.22;;;15.80;99.90;;;;;;5076659;28;20468;-42
2022/10/15 09:54:25;;;;;;;12.68;7.18;;;15.70;99.90;;;;;;5092329;28;20035;-40
2022/10/15 09:56:56;;;;;;;10.55;6.72;;;15.60;99.90;;;;;;5091091;28;20024;-44
2022/10/15 09:59:24;;;;;;;15.35;8.20;;;15.40;99.90;;;;;;5096272;28;20028;-47
2022/10/15 10:02:19;;;;;;;14.02;7.47;;;15.30;99.90;;;;;;5090839;28;20028;-41
2022/10/15 10:04:45;;;;;;;14.77;8.02;;;15.30;99.90;;;;;;5074077;28;20045;-41
2022/10/15 10:07:28;;;;;;;11.73;7.28;;;15.30;99.90;;;;;;5075917;28;20104;-41
2022/10/15 10:09:57;;;;;;;16.08;7.78;;;15.20;99.90;;;;;;5076128;28;20543;-41
2022/10/15 10:12:33;;;;;;;18.52;8.52;;;15.20;99.90;;;;;;5076962;28;20029;-41
2022/10/15 10:15:37;;;;;;;16.52;7.63;;;15.20;99.90;;;;;;5057226;28;20127;-41
2022/10/15 10:18:06;;;;;;;11.70;7.47;;;15.20;99.90;;;;;;5077271;28;20060;-42
2022/10/15 10:20:32;;;;;;;22.02;9.43;;;15.10;99.90;;;;;;5079399;28;20101;-42
2022/10/15 10:23:00;;;;;;;15.05;7.88;;;15.10;99.90;;;;;;5075610;28;20033;-41
2022/10/15 10:25:26;;;;;;;17.90;8.77;;;15.10;99.90;;;;;;5075508;28;20021;-41
2022/10/15 10:28:14;;;;;;;15.55;8.95;;;15.20;99.90;;;;;;5075441;28;20028;-41
2022/10/15 10:30:48;;;;;;;15.77;8.25;;;15.20;99.90;;;;;;5075548;28;20028;-41
2022/10/15 10:33:23;;;;;;;14.55;7.85;;;15.10;99.90;;;;;;5092723;28;20102;-42
2022/10/15 10:35:50;;;;;;;13.77;7.70;;;15.10;99.90;;;;;;5095639;28;20031;-41
2022/10/15 10:38:36;;;;;;;13.55;8.20;;;15.10;99.90;;;;;;5079465;28;20503;-42
2022/10/15 10:41:10;;;;;;;16.30;8.15;;;15.10;99.90;;;;;;5075502;28;20040;-38
2022/10/15 10:43:51;;;;;;;18.90;8.82;;;15.10;99.90;;;;;;5075178;28;20103;-38
2022/10/15 10:46:21;;;;;;;15.43;7.47;;;15.10;99.90;;;;;;5075151;28;20060;-47
2022/10/15 10:48:51;;;;;;;10.50;6.85;;;15.10;99.90;;;;;;5095033;28;20035;-38
2022/10/15 10:51:18;;;;;;;12.65;7.70;;;15.10;99.90;;;;;;5095288;28;20032;-38
2022/10/15 10:53:54;;;;;;;13.67;7.57;;;15.00;99.90;;;;;;5095286;28;20110;-38
2022/10/15 10:56:42;;;;;;;13.85;7.13;;;15.10;99.90;;;;;;5095278;28;20035;-39
2022/10/15 10:59:26;;;;;;;11.75;7.25;;;15.00;99.90;;;;;;5092636;28;20044;-38
2022/10/15 11:01:52;;;;;;;10.98;6.95;;;15.10;99.90;;;;;;5084123;28;20480;-52
2022/10/15 11:04:23;;;;;;;11.77;6.90;;;15.10;99.90;;;;;;5095021;28;20043;-39
2022/10/15 11:07:07;;;;;;;12.38;5.95;;;15.10;99.90;;;;;;5094964;28;20484;-37
2022/10/15 11:10:01;;;;;;;11.98;6.15;;;15.20;99.90;;;;;;5088429;28;20476;-30
2022/10/15 11:12:29;;;;;;;11.48;6.32;;;15.20;99.90;;;;;;5074530;28;20115;-32
2022/10/15 11:15:16;;;;;;;10.73;5.88;;;15.20;99.90;;;;;;5056220;28;20036;-31
2022/10/15 11:18:18;;;;;;;9.00;5.22;;;15.30;99.90;;;;;;5080977;28;20021;-33
2022/10/15 11:21:15;;;;;;;10.23;5.43;;;15.30;99.90;;;;;;5074394;28;20066;-32
2022/10/15 11:24:12;;;;;;;8.40;5.57;;;15.30;99.90;;;;;;5025920;28;20565;-31
2022/10/15 11:26:56;;;;;;;10.38;5.25;;;15.30;99.90;;;;;;5074602;28;20495;-30
2022/10/15 11:29:33;;;;;;;9.23;5.40;;;15.30;99.90;;;;;;5073878;28;20024;-32
2022/10/15 11:32:27;;;;;;;9.00;5.68;;;15.30;99.90;;;;;;5065559;28;20036;-35
2022/10/15 11:35:27;;;;;;;8.80;4.95;;;15.30;99.90;;;;;;5094334;28;20219;-32
2022/10/15 11:38:08;;;;;;;5.75;4.45;;;15.40;99.90;;;;;;5093343;28;20127;-28
2022/10/15 11:41:04;;;;;;;8.25;4.85;;;15.40;99.90;;;;;;5094222;28;20396;-28
2022/10/15 11:43:42;;;;;;;9.43;5.37;;;15.40;99.90;;;;;;5073916;28;20524;-30
2022/10/15 11:46:27;;;;;;;8.95;5.70;;;15.50;99.90;;;;;;5073448;28;20255;-29
2022/10/15 11:49:20;;;;;;;8.88;4.53;;;15.50;99.90;;;;;;5073890;28;20043;-31
2022/10/15 11:52:22;;;;;;;7.85;4.05;;;15.50;99.90;;;;;;5081210;28;20081;-30
2022/10/15 11:54:57;;;;;;;8.45;5.00;;;15.60;99.90;;;;;;5094259;28;20483;-31
2022/10/15 11:57:24;;;;;;;7.32;4.53;;;15.60;99.90;;;;;;5093962;28;20483;-37
2022/10/15 12:00:00;;;;;;;6.78;4.53;;;15.60;99.90;;;;;;5094009;28;20384;-37
2022/10/15 12:02:34;;;;;;;6.70;4.28;;;15.70;99.90;;;;;;5093144;28;20028;-38
2022/10/15 12:05:29;;;;;;;4.85;4.07;;;15.70;99.90;;;;;;5093224;28;20032;-37
2022/10/15 12:07:56;;;;;;;5.82;4.40;;;15.70;99.90;;;;;;5093814;28;20031;-32
2022/10/15 12:10:34;;;;;;;6.63;3.83;;;15.80;99.90;;;;;;5093757;28;20503;-30
2022/10/15 12:13:20;;;;;;;5.93;4.30;;;15.80;99.90;;;;;;5083151;28;20036;-32
2022/10/15 12:16:13;;;;;;;6.07;4.60;;;15.90;99.90;;;;;;5093627;28;20032;-31
2022/10/15 12:18:46;;;;;;;6.30;4.47;;;15.90;99.90;;;;;;5083757;28;20032;-29
2022/10/15 12:22:05;;;;;;;5.85;4.00;;;16.00;99.90;;;;;;5093517;28;20472;-31
2022/10/15 12:24:36;;;;;;;6.40;4.32;;;16.10;99.90;;;;;;5061787;28;20503;-32
2022/10/15 12:27:27;;;;;;;8.02;4.18;;;16.10;99.90;;;;;;5073219;28;20055;-48
2022/10/15 12:29:58;;;;;;;6.68;4.60;;;16.20;99.90;;;;;;5054460;28;20036;-33
2022/10/15 12:32:36;;;;;;;5.35;4.32;;;16.20;99.90;;;;;;5080871;28;20036;-31
2022/10/15 12:35:27;;;;;;;6.00;4.75;;;16.20;99.90;;;;;;5093264;28;20555;-29
2022/10/15 12:37:52;;;;;;;5.50;4.47;;;16.20;99.90;;;;;;5078824;28;20129;-30
2022/10/15 12:40:21;;;;;;;7.63;5.07;;;16.20;99.90;;;;;;5093247;28;20064;-32
2022/10/15 12:42:54;;;;;;;7.93;5.13;;;16.20;99.90;;;;;;5081381;28;20539;-33
2022/10/15 12:45:23;;;;;;;6.20;4.55;;;16.30;99.90;;;;;;5072949;28;20052;-30
2022/10/15 12:47:49;;;;;;;4.70;4.20;;;16.30;99.90;;;;;;5081866;28;20020;-33
2022/10/15 12:50:20;;;;;;;14.80;5.50;;;16.30;99.90;;;;;;5093215;28;20028;-30
2022/10/15 12:52:57;;;;;;;7.15;5.05;;;16.30;99.90;;;;;;5081855;28;20029;-31
2022/10/15 12:55:34;;;;;;;6.18;4.20;;;16.30;99.90;;;;;;5073137;28;20032;-33